sensor_id;sensor_type;location;lat;lon;timestamp;pressure;altitude;pressure_sealevel;temperature;humidity
77027;BME280;65956;52.986;17.490;2023-06-22T00:02:20;100557.42;;;18.69;81.93
77027;BME280;65956;52.986;17.490;2023-06-22T00:04:46;100552.80;;;18.64;82.13
77027;BME280;65956;52.986;17.490;2023-06-22T00:07:13;100555.44;;;18.60;81.97
77027;BME280;65956;52.986;17.490;2023-06-22T00:09:39;100563.70;;;18.57;81.64
77027;BME280;65956;52.986;17.490;2023-06-22T00:12:05;100564.70;;;18.53;81.49
77027;BME280;65956;52.986;17.490;2023-06-22T00:14:31;100575.60;;;18.49;81.38
77027;BME280;65956;52.986;17.490;2023-06-22T00:16:57;100576.89;;;18.42;81.56
77027;BME280;65956;52.986;17.490;2023-06-22T00:19:24;100580.98;;;18.36;81.54
77027;BME280;65956;52.986;17.490;2023-06-22T00:21:51;100580.66;;;18.29;81.56
77027;BME280;65956;52.986;17.490;2023-06-22T00:24:20;100583.13;;;18.24;81.78
77027;BME280;65956;52.986;17.490;2023-06-22T00:26:48;100584.88;;;18.18;81.91
77027;BME280;65956;52.986;17.490;2023-06-22T00:29:15;100583.88;;;18.13;82.07
77027;BME280;65956;52.986;17.490;2023-06-22T00:31:41;100583.77;;;18.08;82.18
77027;BME280;65956;52.986;17.490;2023-06-22T00:34:08;100588.04;;;18.06;82.38
77027;BME280;65956;52.986;17.490;2023-06-22T00:36:38;100589.91;;;18.05;82.44
77027;BME280;65956;52.986;17.490;2023-06-22T00:39:06;100592.48;;;18.06;82.63
77027;BME280;65956;52.986;17.490;2023-06-22T00:41:33;100593.48;;;18.05;82.74
77027;BME280;65956;52.986;17.490;2023-06-22T00:44:00;100595.21;;;18.06;82.94
77027;BME280;65956;52.986;17.490;2023-06-22T00:46:26;100601.81;;;18.07;82.98
77027;BME280;65956;52.986;17.490;2023-06-22T00:48:52;100603.90;;;18.09;82.96
77027;BME280;65956;52.986;17.490;2023-06-22T00:51:19;100602.52;;;18.10;82.92
77027;BME280;65956;52.986;17.490;2023-06-22T00:53:51;100604.44;;;18.11;82.66
77027;BME280;65956;52.986;17.490;2023-06-22T00:56:19;100606.54;;;18.13;82.67
77027;BME280;65956;52.986;17.490;2023-06-22T00:58:47;100605.38;;;18.15;82.64
77027;BME280;65956;52.986;17.490;2023-06-22T01:01:13;100607.30;;;18.16;82.50
77027;BME280;65956;52.986;17.490;2023-06-22T06:06:29;100726.29;;;19.60;73.84
77027;BME280;65956;52.986;17.490;2023-06-22T06:08:55;100727.05;;;19.64;72.66
77027;BME280;65956;52.986;17.490;2023-06-22T06:11:23;100735.33;;;19.67;72.88
77027;BME280;65956;52.986;17.490;2023-06-22T06:13:49;100741.31;;;19.79;72.82
77027;BME280;65956;52.986;17.490;2023-06-22T06:16:15;100733.42;;;19.89;72.76
77027;BME280;65956;52.986;17.490;2023-06-22T06:18:41;100730.98;;;19.95;72.04
77027;BME280;65956;52.986;17.490;2023-06-22T06:21:07;100724.84;;;20.01;72.21
77027;BME280;65956;52.986;17.490;2023-06-22T06:23:33;100728.41;;;20.05;71.34
77027;BME280;65956;52.986;17.490;2023-06-22T06:25:59;100722.61;;;20.15;71.66
77027;BME280;65956;52.986;17.490;2023-06-22T06:28:25;100722.77;;;20.25;69.89
77027;BME280;65956;52.986;17.490;2023-06-22T06:30:51;100719.48;;;20.23;69.83
77027;BME280;65956;52.986;17.490;2023-06-22T06:33:17;100728.45;;;20.23;69.88
77027;BME280;65956;52.986;17.490;2023-06-22T06:35:43;100732.66;;;20.29;69.20
77027;BME280;65956;52.986;17.490;2023-06-22T06:38:09;100733.20;;;20.31;69.23
77027;BME280;65956;52.986;17.490;2023-06-22T06:40:36;100731.98;;;20.37;69.62
77027;BME280;65956;52.986;17.490;2023-06-22T06:43:02;100731.22;;;20.40;68.63
77027;BME280;65956;52.986;17.490;2023-06-22T06:45:28;100733.45;;;20.47;69.04
77027;BME280;65956;52.986;17.490;2023-06-22T06:47:56;100734.73;;;20.51;68.28
77027;BME280;65956;52.986;17.490;2023-06-22T06:50:22;100733.30;;;20.54;67.94
77027;BME280;65956;52.986;17.490;2023-06-22T06:52:48;100729.21;;;20.58;68.75
77027;BME280;65956;52.986;17.490;2023-06-22T06:55:16;100730.86;;;20.70;69.41
77027;BME280;65956;52.986;17.490;2023-06-22T06:57:43;100735.05;;;20.85;68.55
77027;BME280;65956;52.986;17.490;2023-06-22T07:00:12;100735.71;;;20.92;68.49
77027;BME280;65956;52.986;17.490;2023-06-22T07:02:42;100737.02;;;21.04;67.61
77027;BME280;65956;52.986;17.490;2023-06-22T07:05:09;100740.51;;;21.05;66.81
77027;BME280;65956;52.986;17.490;2023-06-22T07:07:36;100742.52;;;21.05;66.45
77027;BME280;65956;52.986;17.490;2023-06-22T07:10:02;100745.23;;;21.07;66.03
77027;BME280;65956;52.986;17.490;2023-06-22T07:12:29;100743.77;;;21.08;65.58
77027;BME280;65956;52.986;17.490;2023-06-22T07:15:01;100743.23;;;21.11;64.91
77027;BME280;65956;52.986;17.490;2023-06-22T07:17:28;100742.95;;;21.13;64.19
77027;BME280;65956;52.986;17.490;2023-06-22T07:19:54;100742.92;;;21.19;64.26
77027;BME280;65956;52.986;17.490;2023-06-22T07:22:20;100742.29;;;21.22;63.89
77027;BME280;65956;52.986;17.490;2023-06-22T07:24:46;100737.96;;;21.29;63.19
77027;BME280;65956;52.986;17.490;2023-06-22T07:27:12;100749.05;;;21.32;63.17
77027;BME280;65956;52.986;17.490;2023-06-22T07:29:38;100755.67;;;21.38;62.37
77027;BME280;65956;52.986;17.490;2023-06-22T07:32:06;100753.46;;;21.39;62.57
77027;BME280;65956;52.986;17.490;2023-06-22T07:34:32;100752.96;;;21.40;62.01
77027;BME280;65956;52.986;17.490;2023-06-22T07:36:59;100757.89;;;21.44;60.98
77027;BME280;65956;52.986;17.490;2023-06-22T07:39:25;100762.03;;;21.48;62.13
77027;BME280;65956;52.986;17.490;2023-06-22T07:41:52;100762.78;;;21.59;62.31
77027;BME280;65956;52.986;17.490;2023-06-22T07:44:18;100759.55;;;21.66;61.44
77027;BME280;65956;52.986;17.490;2023-06-22T07:46:44;100758.25;;;21.77;61.94
77027;BME280;65956;52.986;17.490;2023-06-22T07:49:11;100763.81;;;21.83;59.96
77027;BME280;65956;52.986;17.490;2023-06-22T07:51:37;100759.67;;;21.83;59.84
77027;BME280;65956;52.986;17.490;2023-06-22T07:54:04;100766.99;;;21.89;60.70
77027;BME280;65956;52.986;17.490;2023-06-22T07:56:30;100771.19;;;22.03;60.31
77027;BME280;65956;52.986;17.490;2023-06-22T07:58:55;100773.48;;;22.12;59.54
77027;BME280;65956;52.986;17.490;2023-06-22T08:01:24;100771.25;;;22.21;59.06
77027;BME280;65956;52.986;17.490;2023-06-22T08:03:50;100770.85;;;22.21;59.13
77027;BME280;65956;52.986;17.490;2023-06-22T08:06:16;100774.55;;;22.22;58.59
77027;BME280;65956;52.986;17.490;2023-06-22T08:08:42;100773.21;;;22.37;58.99
77027;BME280;65956;52.986;17.490;2023-06-22T08:11:09;100762.76;;;22.54;58.50
77027;BME280;65956;52.986;17.490;2023-06-22T08:13:35;100760.19;;;22.55;57.66
77027;BME280;65956;52.986;17.490;2023-06-22T08:16:01;100759.71;;;22.52;58.03
77027;BME280;65956;52.986;17.490;2023-06-22T08:18:28;100760.77;;;22.49;57.21
77027;BME280;65956;52.986;17.490;2023-06-22T08:20:54;100761.55;;;22.52;57.31
77027;BME280;65956;52.986;17.490;2023-06-22T08:23:20;100756.27;;;22.53;57.18
77027;BME280;65956;52.986;17.490;2023-06-22T08:25:46;100755.60;;;22.51;57.03
77027;BME280;65956;52.986;17.490;2023-06-22T08:28:13;100749.85;;;22.60;57.78
77027;BME280;65956;52.986;17.490;2023-06-22T08:30:39;100754.66;;;22.66;57.64
77027;BME280;65956;52.986;17.490;2023-06-22T08:33:05;100754.18;;;22.73;55.79
77027;BME280;65956;52.986;17.490;2023-06-22T08:35:31;100754.02;;;22.82;55.55
77027;BME280;65956;52.986;17.490;2023-06-22T08:37:57;100756.88;;;22.91;56.57
77027;BME280;65956;52.986;17.490;2023-06-22T08:40:25;100749.08;;;23.00;56.88
77027;BME280;65956;52.986;17.490;2023-06-22T08:42:51;100747.46;;;23.03;53.92
77027;BME280;65956;52.986;17.490;2023-06-22T08:45:17;100751.08;;;23.10;52.62
77027;BME280;65956;52.986;17.490;2023-06-22T08:47:43;100751.92;;;23.21;51.86
77027;BME280;65956;52.986;17.490;2023-06-22T08:50:10;100752.42;;;23.26;52.08
77027;BME280;65956;52.986;17.490;2023-06-22T08:52:37;100751.95;;;23.31;52.09
77027;BME280;65956;52.986;17.490;2023-06-22T08:55:04;100751.24;;;23.49;53.74
77027;BME280;65956;52.986;17.490;2023-06-22T08:57:30;100750.89;;;23.72;53.82
77027;BME280;65956;52.986;17.490;2023-06-22T08:59:58;100755.52;;;23.75;54.01
77027;BME280;65956;52.986;17.490;2023-06-22T09:02:25;100755.46;;;23.76;53.54
77027;BME280;65956;52.986;17.490;2023-06-22T09:04:52;100753.37;;;23.81;53.04
77027;BME280;65956;52.986;17.490;2023-06-22T09:07:21;100751.07;;;23.85;51.69
77027;BME280;65956;52.986;17.490;2023-06-22T09:09:49;100752.23;;;23.86;51.08
77027;BME280;65956;52.986;17.490;2023-06-22T09:12:15;100742.17;;;23.91;52.84
77027;BME280;65956;52.986;17.490;2023-06-22T09:14:41;100746.25;;;23.98;51.86
77027;BME280;65956;52.986;17.490;2023-06-22T09:17:07;100745.46;;;24.03;52.04
77027;BME280;65956;52.986;17.490;2023-06-22T09:19:33;100743.38;;;24.12;51.36
77027;BME280;65956;52.986;17.490;2023-06-22T09:21:59;100746.63;;;24.21;51.17
77027;BME280;65956;52.986;17.490;2023-06-22T09:24:25;100750.88;;;24.33;49.98
77027;BME280;65956;52.986;17.490;2023-06-22T09:26:51;100750.88;;;24.36;49.78
77027;BME280;65956;52.986;17.490;2023-06-22T09:29:17;100747.18;;;24.39;50.06
77027;BME280;65956;52.986;17.490;2023-06-22T09:31:43;100743.06;;;24.43;49.45
77027;BME280;65956;52.986;17.490;2023-06-22T09:34:10;100741.86;;;24.52;49.03
77027;BME280;65956;52.986;17.490;2023-06-22T09:36:36;100733.61;;;24.56;48.94
77027;BME280;65956;52.986;17.490;2023-06-22T09:39:02;100733.81;;;24.54;49.57
77027;BME280;65956;52.986;17.490;2023-06-22T09:41:32;100733.66;;;24.61;47.81
77027;BME280;65956;52.986;17.490;2023-06-22T09:43:58;100732.66;;;24.78;48.92
77027;BME280;65956;52.986;17.490;2023-06-22T09:46:24;100728.41;;;24.87;48.46
77027;BME280;65956;52.986;17.490;2023-06-22T09:48:53;100729.95;;;24.98;47.97
77027;BME280;65956;52.986;17.490;2023-06-22T09:51:19;100725.64;;;25.12;47.50
77027;BME280;65956;52.986;17.490;2023-06-22T09:53:47;100721.23;;;25.28;46.59
77027;BME280;65956;52.986;17.490;2023-06-22T09:56:13;100723.47;;;25.36;46.76
77027;BME280;65956;52.986;17.490;2023-06-22T09:58:43;100722.10;;;25.39;46.25
77027;BME280;65956;52.986;17.490;2023-06-22T10:01:09;100721.59;;;25.46;45.30
77027;BME280;65956;52.986;17.490;2023-06-22T10:03:36;100717.11;;;25.40;44.72
77027;BME280;65956;52.986;17.490;2023-06-22T10:06:03;100713.23;;;25.37;44.23
77027;BME280;65956;52.986;17.490;2023-06-22T10:08:29;100710.98;;;25.47;44.76
77027;BME280;65956;52.986;17.490;2023-06-22T10:10:55;100705.98;;;25.59;43.23
77027;BME280;65956;52.986;17.490;2023-06-22T10:13:21;100708.05;;;25.68;42.97
77027;BME280;65956;52.986;17.490;2023-06-22T10:15:47;100709.02;;;25.87;44.10
77027;BME280;65956;52.986;17.490;2023-06-22T10:18:17;100710.17;;;26.01;42.66
77027;BME280;65956;52.986;17.490;2023-06-22T10:20:46;100716.61;;;26.20;42.11
77027;BME280;65956;52.986;17.490;2023-06-22T10:23:13;100717.13;;;26.28;41.03
77027;BME280;65956;52.986;17.490;2023-06-22T10:25:38;100715.33;;;26.22;38.55
77027;BME280;65956;52.986;17.490;2023-06-22T10:28:04;100716.14;;;26.22;39.03
77027;BME280;65956;52.986;17.490;2023-06-22T10:30:30;100717.41;;;26.37;39.55
77027;BME280;65956;52.986;17.490;2023-06-22T10:32:56;100715.48;;;26.63;39.49
77027;BME280;65956;52.986;17.490;2023-06-22T10:35:22;100713.09;;;26.85;39.17
77027;BME280;65956;52.986;17.490;2023-06-22T10:37:48;100717.23;;;26.96;38.10
77027;BME280;65956;52.986;17.490;2023-06-22T10:40:16;100714.38;;;27.15;38.24
77027;BME280;65956;52.986;17.490;2023-06-22T10:42:43;100705.83;;;27.41;38.82
77027;BME280;65956;52.986;17.490;2023-06-22T10:45:09;100707.09;;;27.70;37.32
77027;BME280;65956;52.986;17.490;2023-06-22T10:47:35;100712.56;;;28.01;37.89
77027;BME280;65956;52.986;17.490;2023-06-22T10:50:02;100709.84;;;28.40;37.52
77027;BME280;65956;52.986;17.490;2023-06-22T10:52:29;100709.38;;;28.80;36.84
77027;BME280;65956;52.986;17.490;2023-06-22T10:54:55;100705.12;;;29.13;36.41
77027;BME280;65956;52.986;17.490;2023-06-22T10:57:21;100707.80;;;29.29;35.27
77027;BME280;65956;52.986;17.490;2023-06-22T10:59:47;100706.80;;;29.49;35.26
77027;BME280;65956;52.986;17.490;2023-06-22T11:02:13;100709.52;;;29.77;34.56
77027;BME280;65956;52.986;17.490;2023-06-22T11:04:39;100709.26;;;29.92;33.71
77027;BME280;65956;52.986;17.490;2023-06-22T11:07:05;100708.98;;;30.04;33.83
77027;BME280;65956;52.986;17.490;2023-06-22T11:09:32;100706.70;;;30.21;33.53
77027;BME280;65956;52.986;17.490;2023-06-22T11:11:57;100704.58;;;30.26;32.70
77027;BME280;65956;52.986;17.490;2023-06-22T11:14:25;100706.23;;;30.44;32.72
77027;BME280;65956;52.986;17.490;2023-06-22T11:16:51;100699.61;;;30.35;31.63
77027;BME280;65956;52.986;17.490;2023-06-22T11:19:18;100700.09;;;30.33;32.26
77027;BME280;65956;52.986;17.490;2023-06-22T11:21:44;100694.29;;;30.39;31.71
77027;BME280;65956;52.986;17.490;2023-06-22T11:24:10;100694.63;;;30.32;32.22
77027;BME280;65956;52.986;17.490;2023-06-22T11:26:36;100692.99;;;30.24;31.82
77027;BME280;65956;52.986;17.490;2023-06-22T11:29:02;100696.44;;;30.43;32.41
77027;BME280;65956;52.986;17.490;2023-06-22T11:31:32;100692.94;;;30.76;31.87
77027;BME280;65956;52.986;17.490;2023-06-22T11:33:58;100689.02;;;30.86;30.26
77027;BME280;65956;52.986;17.490;2023-06-22T11:36:25;100688.91;;;30.85;30.28
77027;BME280;65956;52.986;17.490;2023-06-22T11:38:51;100686.23;;;31.12;30.45
77027;BME280;65956;52.986;17.490;2023-06-22T11:41:17;100682.19;;;31.29;30.84
77027;BME280;65956;52.986;17.490;2023-06-22T11:43:44;100678.16;;;31.44;30.17
77027;BME280;65956;52.986;17.490;2023-06-22T11:46:10;100675.30;;;31.40;30.53
77027;BME280;65956;52.986;17.490;2023-06-22T11:48:37;100673.63;;;31.73;30.44
77027;BME280;65956;52.986;17.490;2023-06-22T11:51:03;100673.95;;;31.97;30.31
77027;BME280;65956;52.986;17.490;2023-06-22T11:53:30;100670.80;;;32.15;29.35
77027;BME280;65956;52.986;17.490;2023-06-22T11:55:56;100667.20;;;32.24;29.62
77027;BME280;65956;52.986;17.490;2023-06-22T11:58:22;100664.55;;;32.45;29.21
77027;BME280;65956;52.986;17.490;2023-06-22T12:00:48;100661.56;;;32.47;28.28
77027;BME280;65956;52.986;17.490;2023-06-22T12:03:16;100662.40;;;32.30;28.24
77027;BME280;65956;52.986;17.490;2023-06-22T12:05:42;100654.98;;;32.12;28.27
77027;BME280;65956;52.986;17.490;2023-06-22T12:08:08;100651.11;;;32.12;28.50
77027;BME280;65956;52.986;17.490;2023-06-22T12:10:34;100649.80;;;32.29;28.67
77027;BME280;65956;52.986;17.490;2023-06-22T12:13:00;100651.11;;;32.37;28.43
77027;BME280;65956;52.986;17.490;2023-06-22T12:15:26;100651.95;;;32.62;28.57
77027;BME280;65956;52.986;17.490;2023-06-22T12:17:52;100649.55;;;32.58;27.52
77027;BME280;65956;52.986;17.490;2023-06-22T12:20:19;100645.77;;;32.38;27.89
77027;BME280;65956;52.986;17.490;2023-06-22T12:22:45;100645.94;;;32.49;28.44
77027;BME280;65956;52.986;17.490;2023-06-22T12:25:11;100649.20;;;32.51;28.16
77027;BME280;65956;52.986;17.490;2023-06-22T12:27:37;100649.24;;;32.74;28.16
77027;BME280;65956;52.986;17.490;2023-06-22T12:30:04;100647.16;;;32.93;27.56
77027;BME280;65956;52.986;17.490;2023-06-22T12:32:30;100644.13;;;33.11;26.49
77027;BME280;65956;52.986;17.490;2023-06-22T12:34:56;100637.85;;;33.47;26.13
77027;BME280;65956;52.986;17.490;2023-06-22T12:37:23;100638.60;;;34.52;24.92
77027;BME280;65956;52.986;17.490;2023-06-22T12:39:49;100638.54;;;35.53;24.07
77027;BME280;65956;52.986;17.490;2023-06-22T12:42:16;100626.31;;;36.33;23.48
77027;BME280;65956;52.986;17.490;2023-06-22T12:44:42;100625.29;;;36.90;22.97
77027;BME280;65956;52.986;17.490;2023-06-22T12:47:09;100622.48;;;37.67;22.14
77027;BME280;65956;52.986;17.490;2023-06-22T12:49:35;100617.46;;;38.27;21.44
77027;BME280;65956;52.986;17.490;2023-06-22T12:52:02;100613.34;;;38.38;21.07
77027;BME280;65956;52.986;17.490;2023-06-22T12:54:29;100610.33;;;39.07;21.27
77027;BME280;65956;52.986;17.490;2023-06-22T12:56:56;100615.27;;;39.74;20.24
77027;BME280;65956;52.986;17.490;2023-06-22T12:59:22;100614.22;;;39.95;18.97
77027;BME280;65956;52.986;17.490;2023-06-22T13:01:48;100610.71;;;39.80;18.37
77027;BME280;65956;52.986;17.490;2023-06-22T13:04:14;100606.28;;;40.01;18.78
77027;BME280;65956;52.986;17.490;2023-06-22T13:06:46;100602.14;;;40.59;19.22
77027;BME280;65956;52.986;17.490;2023-06-22T13:09:18;100599.98;;;40.66;18.02
77027;BME280;65956;52.986;17.490;2023-06-22T13:11:44;100599.11;;;40.11;18.04
77027;BME280;65956;52.986;17.490;2023-06-22T13:14:10;100596.35;;;39.75;18.16
77027;BME280;65956;52.986;17.490;2023-06-22T13:16:36;100601.16;;;39.84;18.40
77027;BME280;65956;52.986;17.490;2023-06-22T13:19:02;100601.82;;;39.79;18.06
77027;BME280;65956;52.986;17.490;2023-06-22T13:21:30;100600.86;;;39.86;18.22
77027;BME280;65956;52.986;17.490;2023-06-22T13:23:56;100591.48;;;38.92;20.27
77027;BME280;65956;52.986;17.490;2023-06-22T13:26:22;100595.09;;;38.47;20.89
77027;BME280;65956;52.986;17.490;2023-06-22T13:28:48;100597.10;;;39.20;20.27
77027;BME280;65956;52.986;17.490;2023-06-22T13:31:14;100591.27;;;39.76;19.93
77027;BME280;65956;52.986;17.490;2023-06-22T13:33:40;100587.87;;;40.56;18.21
77027;BME280;65956;52.986;17.490;2023-06-22T13:36:07;100584.23;;;40.69;17.48
77027;BME280;65956;52.986;17.490;2023-06-22T13:38:35;100587.94;;;40.86;17.76
77027;BME280;65956;52.986;17.490;2023-06-22T13:41:05;100580.56;;;40.86;17.30
77027;BME280;65956;52.986;17.490;2023-06-22T13:43:31;100571.65;;;41.41;17.09
77027;BME280;65956;52.986;17.490;2023-06-22T13:45:58;100565.61;;;41.98;16.76
77027;BME280;65956;52.986;17.490;2023-06-22T13:48:24;100538.52;;;42.09;16.53
77027;BME280;65956;52.986;17.490;2023-06-22T13:50:52;100561.55;;;41.62;17.51
77027;BME280;65956;52.986;17.490;2023-06-22T13:53:18;100555.36;;;41.54;18.01
77027;BME280;65956;52.986;17.490;2023-06-22T13:55:44;100557.79;;;41.21;17.82
77027;BME280;65956;52.986;17.490;2023-06-22T13:58:10;100551.30;;;41.01;17.98
77027;BME280;65956;52.986;17.490;2023-06-22T14:00:36;100547.33;;;40.92;18.13
77027;BME280;65956;52.986;17.490;2023-06-22T14:03:02;100542.01;;;40.85;18.12
77027;BME280;65956;52.986;17.490;2023-06-22T14:05:29;100543.21;;;40.84;18.11
77027;BME280;65956;52.986;17.490;2023-06-22T14:07:55;100537.02;;;40.63;17.50
77027;BME280;65956;52.986;17.490;2023-06-22T14:10:21;100542.65;;;40.40;16.98
77027;BME280;65956;52.986;17.490;2023-06-22T14:12:47;100539.19;;;39.99;16.96
77027;BME280;65956;52.986;17.490;2023-06-22T14:15:13;100541.13;;;39.98;17.83
77027;BME280;65956;52.986;17.490;2023-06-22T14:17:39;100539.27;;;40.00;17.87
77027;BME280;65956;52.986;17.490;2023-06-22T14:20:06;100541.16;;;40.18;18.05
77027;BME280;65956;52.986;17.490;2023-06-22T14:22:34;100541.23;;;39.82;18.04
77027;BME280;65956;52.986;17.490;2023-06-22T14:25:01;100546.34;;;39.10;18.14
77027;BME280;65956;52.986;17.490;2023-06-22T14:27:27;100538.22;;;38.78;18.39
77027;BME280;65956;52.986;17.490;2023-06-22T14:29:53;100541.64;;;38.73;18.56
77027;BME280;65956;52.986;17.490;2023-06-22T14:32:19;100545.91;;;38.37;18.26
77027;BME280;65956;52.986;17.490;2023-06-22T14:34:45;100542.60;;;37.95;19.08
77027;BME280;65956;52.986;17.490;2023-06-22T14:37:21;100538.35;;;37.92;19.16
77027;BME280;65956;52.986;17.490;2023-06-22T14:39:47;100540.35;;;37.93;19.35
77027;BME280;65956;52.986;17.490;2023-06-22T14:42:13;100535.55;;;37.62;19.14
77027;BME280;65956;52.986;17.490;2023-06-22T14:44:39;100534.50;;;37.20;19.91
77027;BME280;65956;52.986;17.490;2023-06-22T14:47:05;100529.05;;;37.17;20.72
77027;BME280;65956;52.986;17.490;2023-06-22T14:49:31;100530.91;;;37.02;20.02
77027;BME280;65956;52.986;17.490;2023-06-22T14:51:57;100530.73;;;36.89;19.55
77027;BME280;65956;52.986;17.490;2023-06-22T14:54:23;100531.33;;;37.09;19.87
77027;BME280;65956;52.986;17.490;2023-06-22T14:56:50;100525.91;;;37.79;18.83
77027;BME280;65956;52.986;17.490;2023-06-22T14:59:16;100533.05;;;37.96;18.76
77027;BME280;65956;52.986;17.490;2023-06-22T15:01:42;100534.02;;;38.30;19.07
77027;BME280;65956;52.986;17.490;2023-06-22T15:04:08;100527.50;;;38.25;18.14
77027;BME280;65956;52.986;17.490;2023-06-22T15:06:34;100524.45;;;38.32;18.11
77027;BME280;65956;52.986;17.490;2023-06-22T15:09:00;100523.76;;;37.97;18.33
77027;BME280;65956;52.986;17.490;2023-06-22T15:11:26;100523.71;;;36.79;19.48
77027;BME280;65956;52.986;17.490;2023-06-22T15:13:52;100518.95;;;35.92;20.27
77027;BME280;65956;52.986;17.490;2023-06-22T15:16:18;100520.58;;;35.25;20.96
77027;BME280;65956;52.986;17.490;2023-06-22T15:18:44;100520.51;;;35.40;21.32
77027;BME280;65956;52.986;17.490;2023-06-22T15:21:12;100510.98;;;36.29;21.17
77027;BME280;65956;52.986;17.490;2023-06-22T15:23:38;100513.73;;;36.89;21.07
77027;BME280;65956;52.986;17.490;2023-06-22T15:26:04;100512.48;;;36.79;20.54
77027;BME280;65956;52.986;17.490;2023-06-22T15:28:33;100504.92;;;35.60;21.91
77027;BME280;65956;52.986;17.490;2023-06-22T15:31:00;100508.46;;;34.89;22.45
77027;BME280;65956;52.986;17.490;2023-06-22T15:33:26;100516.45;;;34.84;22.60
77027;BME280;65956;52.986;17.490;2023-06-22T15:35:52;100507.69;;;35.53;22.16
77027;BME280;65956;52.986;17.490;2023-06-22T15:38:18;100507.29;;;36.08;21.95
77027;BME280;65956;52.986;17.490;2023-06-22T15:40:44;100505.44;;;36.42;21.34
77027;BME280;65956;52.986;17.490;2023-06-22T15:43:11;100504.70;;;36.50;21.04
77027;BME280;65956;52.986;17.490;2023-06-22T15:45:39;100509.55;;;36.67;21.07
77027;BME280;65956;52.986;17.490;2023-06-22T15:48:05;100505.37;;;36.75;20.70
77027;BME280;65956;52.986;17.490;2023-06-22T15:50:31;100508.27;;;36.89;21.22
77027;BME280;65956;52.986;17.490;2023-06-22T15:52:57;100504.41;;;36.71;20.60
77027;BME280;65956;52.986;17.490;2023-06-22T15:55:23;100500.15;;;36.17;21.15
77027;BME280;65956;52.986;17.490;2023-06-22T15:57:49;100500.48;;;35.52;21.22
77027;BME280;65956;52.986;17.490;2023-06-22T16:00:17;100494.30;;;34.97;21.70
77027;BME280;65956;52.986;17.490;2023-06-22T16:02:44;100503.01;;;34.49;22.09
77027;BME280;65956;52.986;17.490;2023-06-22T16:05:11;100501.13;;;34.47;22.68
77027;BME280;65956;52.986;17.490;2023-06-22T16:07:38;100497.45;;;35.04;22.58
77027;BME280;65956;52.986;17.490;2023-06-22T16:10:05;100495.85;;;35.63;22.29
77027;BME280;65956;52.986;17.490;2023-06-22T16:12:33;100491.48;;;36.02;20.81
77027;BME280;65956;52.986;17.490;2023-06-22T16:15:00;100489.58;;;36.28;20.49
77027;BME280;65956;52.986;17.490;2023-06-22T16:17:26;100489.46;;;36.67;20.76
77027;BME280;65956;52.986;17.490;2023-06-22T16:20:02;100482.44;;;37.38;20.16
77027;BME280;65956;52.986;17.490;2023-06-22T16:22:34;100478.65;;;37.27;19.58
77027;BME280;65956;52.986;17.490;2023-06-22T16:25:01;100472.47;;;36.40;19.58
77027;BME280;65956;52.986;17.490;2023-06-22T16:27:29;100471.00;;;36.07;20.34
77027;BME280;65956;52.986;17.490;2023-06-22T16:29:56;100475.73;;;36.57;20.17
77027;BME280;65956;52.986;17.490;2023-06-22T16:32:22;100472.14;;;36.92;20.20
77027;BME280;65956;52.986;17.490;2023-06-22T16:34:49;100471.57;;;37.08;19.89
77027;BME280;65956;52.986;17.490;2023-06-22T16:37:15;100468.58;;;37.32;19.25
77027;BME280;65956;52.986;17.490;2023-06-22T16:39:41;100465.99;;;37.13;19.17
77027;BME280;65956;52.986;17.490;2023-06-22T16:42:07;100458.30;;;37.06;19.42
77027;BME280;65956;52.986;17.490;2023-06-22T16:44:33;100453.96;;;37.34;19.40
77027;BME280;65956;52.986;17.490;2023-06-22T16:47:00;100456.42;;;37.40;19.13
77027;BME280;65956;52.986;17.490;2023-06-22T16:49:28;100452.55;;;37.38;18.95
77027;BME280;65956;52.986;17.490;2023-06-22T16:51:53;100450.00;;;37.42;18.89
77027;BME280;65956;52.986;17.490;2023-06-22T16:54:19;100446.31;;;37.47;18.87
77027;BME280;65956;52.986;17.490;2023-06-22T16:56:45;100446.64;;;37.23;19.09
77027;BME280;65956;52.986;17.490;2023-06-22T16:59:12;100441.38;;;37.25;19.42
77027;BME280;65956;52.986;17.490;2023-06-22T17:01:49;100436.54;;;37.38;19.10
77027;BME280;65956;52.986;17.490;2023-06-22T17:04:20;100428.17;;;37.36;19.36
77027;BME280;65956;52.986;17.490;2023-06-22T17:06:47;100432.45;;;37.44;19.57
77027;BME280;65956;52.986;17.490;2023-06-22T17:09:15;100426.77;;;37.53;19.87
77027;BME280;65956;52.986;17.490;2023-06-22T17:11:41;100423.42;;;37.54;19.56
77027;BME280;65956;52.986;17.490;2023-06-22T17:14:08;100415.77;;;37.52;19.83
77027;BME280;65956;52.986;17.490;2023-06-22T17:16:35;100416.23;;;37.50;19.90
77027;BME280;65956;52.986;17.490;2023-06-22T17:19:01;100412.75;;;37.62;19.57
77027;BME280;65956;52.986;17.490;2023-06-22T17:21:31;100406.42;;;37.66;19.52
77027;BME280;65956;52.986;17.490;2023-06-22T17:24:01;100400.41;;;37.42;20.17
77027;BME280;65956;52.986;17.490;2023-06-22T17:26:27;100398.81;;;37.35;20.34
77027;BME280;65956;52.986;17.490;2023-06-22T17:28:54;100392.02;;;37.31;20.51
77027;BME280;65956;52.986;17.490;2023-06-22T17:31:40;100393.32;;;37.21;20.43
77027;BME280;65956;52.986;17.490;2023-06-22T17:34:10;100395.88;;;36.91;21.11
77027;BME280;65956;52.986;17.490;2023-06-22T17:36:56;100389.75;;;36.45;21.80
77027;BME280;65956;52.986;17.490;2023-06-22T17:39:25;100388.92;;;36.15;22.17
77027;BME280;65956;52.986;17.490;2023-06-22T17:41:52;100386.75;;;35.73;22.76